Time;durP1;ratioP1;P1;durP2;ratioP2;P2;SDS_P1;SDS_P2;PMS_P1;PMS_P2;Temp;Humidity;BMP_temperature;BMP_pressure;BME280_temperature;BME280_humidity;BME280_pressure;Samples;Min_cycle;Max_cycle;Signal;HPM_P1;HPM_P2
2021/04/22 00:01:04;;;;;;;;;;;;;;;6.28;55.34;102380.19;4982415;28;19926;-72
2021/04/22 00:03:30;;;;;;;;;;;;;;;6.25;55.94;102385.56;4970375;28;19925;-71
2021/04/22 00:05:55;;;;;;;;;;;;;;;6.24;55.82;102386.47;4963324;28;19929;-72
2021/04/22 00:08:22;;;;;;;;;;;;;;;6.23;55.34;102389.16;4965563;28;20290;-72
2021/04/22 00:10:50;;;;;;;;;;;;;;;6.23;55.45;102386.56;4978378;28;19956;-72
2021/04/22 00:13:17;;;;;;;;;;;;;;;6.21;55.34;102394.44;4980802;28;19929;-72
2021/04/22 00:15:43;;;;;;;;;;;;;;;6.18;55.69;102393.78;4973805;28;19925;-72
2021/04/22 00:18:10;;;;;;;;;;;;;;;6.16;55.87;102395.63;4978441;28;19932;-72
2021/04/22 00:20:36;;;;;;;;;;;;;;;6.10;55.96;102392.41;4973270;28;19969;-72
2021/04/22 00:23:03;;;;;;;;;;;;;;;6.07;56.02;102389.94;4963618;28;19930;-72
2021/04/22 00:25:29;;;;;;;;;;;;;;;6.07;55.93;102391.72;4980210;28;20395;-71
2021/04/22 00:27:57;;;;;;;;;;;;;;;6.02;56.55;102405.00;4976754;28;19957;-72
2021/04/22 00:30:24;;;;;;;;;;;;;;;5.99;56.58;102392.09;4977072;28;19929;-72
2021/04/22 00:32:49;;;;;;;;;;;;;;;5.97;56.64;102395.72;4971787;28;19926;-72
2021/04/22 00:35:17;;;;;;;;;;;;;;;5.92;56.52;102393.31;4981334;28;20024;-72
2021/04/22 00:37:43;;;;;;;;;;;;;;;5.94;56.33;102391.47;4977490;28;20062;-72
2021/04/22 00:40:29;;;;;;;;;;;;;;;5.94;56.49;102399.31;4984968;28;19941;-72
2021/04/22 00:42:58;;;;;;;;;;;;;;;5.85;56.38;102394.53;4982038;28;19996;-73
2021/04/22 00:45:24;;;;;;;;;;;;;;;5.85;57.04;102400.59;4978028;28;20001;-72
2021/04/22 00:47:50;;;;;;;;;;;;;;;5.80;57.13;102397.38;4984308;28;20353;-72
2021/04/22 00:50:19;;;;;;;;;;;;;;;5.83;56.43;102396.38;4964247;28;19961;-72
2021/04/22 00:52:45;;;;;;;;;;;;;;;5.82;56.83;102403.38;4984557;28;19969;-72
2021/04/22 00:55:11;;;;;;;;;;;;;;;5.78;56.58;102401.81;4979164;28;19930;-72
2021/04/22 00:57:42;;;;;;;;;;;;;;;5.81;56.38;102400.81;4982910;28;19996;-72
2021/04/22 01:00:19;;;;;;;;;;;;;;;5.82;56.49;102418.13;4974292;28;19952;-72
2021/04/22 01:02:45;;;;;;;;;;;;;;;5.79;57.37;102418.28;4970534;28;19929;-72
2021/04/22 01:05:12;;;;;;;;;;;;;;;5.76;57.05;102421.88;4986614;28;19988;-72
2021/04/22 01:07:41;;;;;;;;;;;;;;;5.78;56.61;102427.84;4963520;28;20425;-72
2021/04/22 01:10:08;;;;;;;;;;;;;;;5.78;56.37;102420.03;4984752;28;19933;-72
2021/04/22 01:12:34;;;;;;;;;;;;;;;5.78;56.22;102420.03;4970916;28;19930;-72
2021/04/22 01:15:00;;;;;;;;;;;;;;;5.72;57.50;102423.81;4981878;28;19948;-72
2021/04/22 01:17:26;;;;;;;;;;;;;;;5.65;57.57;102421.56;4977596;28;19930;-72
2021/04/22 01:19:53;;;;;;;;;;;;;;;5.64;57.77;102425.91;4969757;28;19937;-72
2021/04/22 01:22:19;;;;;;;;;;;;;;;5.67;57.65;102430.16;4982492;28;19932;-72
2021/04/22 01:24:45;;;;;;;;;;;;;;;5.63;57.57;102421.66;4978599;28;19926;-72
2021/04/22 01:27:11;;;;;;;;;;;;;;;5.62;57.44;102432.13;4980346;28;19936;-72
2021/04/22 01:29:37;;;;;;;;;;;;;;;5.59;58.06;102432.28;4974794;28;19926;-72
2021/04/22 01:32:05;;;;;;;;;;;;;;;5.55;57.81;102432.44;4984348;28;20004;-72
2021/04/22 01:34:32;;;;;;;;;;;;;;;5.57;58.21;102442.78;4978067;28;19934;-72
2021/04/22 01:36:57;;;;;;;;;;;;;;;5.55;58.24;102434.19;4985778;28;19930;-72
2021/04/22 01:39:23;;;;;;;;;;;;;;;5.52;58.67;102436.94;4979395;28;19930;-72
2021/04/22 01:41:49;;;;;;;;;;;;;;;5.50;58.21;102434.41;4973793;28;20716;-72
2021/04/22 01:44:15;;;;;;;;;;;;;;;5.47;58.09;102438.91;4984354;28;19933;-72
2021/04/22 01:46:41;;;;;;;;;;;;;;;5.50;58.00;102436.16;4977998;28;20336;-72
2021/04/22 01:49:07;;;;;;;;;;;;;;;5.44;58.79;102437.31;4984392;28;19925;-72
2021/04/22 01:51:33;;;;;;;;;;;;;;;5.39;59.17;102441.03;4978746;28;19945;-72
2021/04/22 01:53:59;;;;;;;;;;;;;;;5.37;59.01;102443.72;4969149;28;19929;-72
2021/04/22 01:56:25;;;;;;;;;;;;;;;5.27;59.11;102445.06;4975832;28;20337;-72
2021/04/22 01:58:51;;;;;;;;;;;;;;;5.23;59.37;102452.16;4977117;28;19925;-72
2021/04/22 02:01:17;;;;;;;;;;;;;;;5.24;59.00;102453.84;4982587;28;19933;-71
2021/04/22 02:03:43;;;;;;;;;;;;;;;5.22;59.28;102452.25;4975391;28;19948;-72
2021/04/22 02:06:10;;;;;;;;;;;;;;;5.21;59.07;102448.78;4966122;28;19953;-72
2021/04/22 02:08:36;;;;;;;;;;;;;;;5.20;59.25;102451.50;4979396;28;19937;-72
2021/04/22 02:11:03;;;;;;;;;;;;;;;5.17;59.70;102446.41;4957822;28;19973;-72
2021/04/22 02:13:29;;;;;;;;;;;;;;;5.10;59.60;102449.31;4983678;28;19930;-72
2021/04/22 02:15:55;;;;;;;;;;;;;;;5.08;59.26;102448.53;4978404;28;19980;-72
2021/04/22 02:18:21;;;;;;;;;;;;;;;5.06;60.03;102445.16;4983516;28;19926;-72
2021/04/22 02:20:48;;;;;;;;;;;;;;;5.06;59.70;102450.34;4978243;28;19932;-72
2021/04/22 02:23:18;;;;;;;;;;;;;;;5.07;59.86;102451.19;4977851;28;19982;-72
2021/04/22 02:25:46;;;;;;;;;;;;;;;5.07;59.65;102451.19;4981934;28;19936;-72
2021/04/22 02:28:12;;;;;;;;;;;;;;;5.04;60.33;102441.78;4979009;28;19944;-72
2021/04/22 02:30:41;;;;;;;;;;;;;;;5.00;60.25;102452.38;4984310;28;19932;-72
2021/04/22 02:33:08;;;;;;;;;;;;;;;4.88;61.02;102446.84;4979148;28;19930;-72
2021/04/22 02:35:35;;;;;;;;;;;;;;;4.86;61.25;102447.81;4979828;28;20304;-72
2021/04/22 02:38:03;;;;;;;;;;;;;;;4.86;60.92;102450.41;4976336;28;19925;-73
2021/04/22 02:40:29;;;;;;;;;;;;;;;4.80;61.13;102451.53;4967083;28;23666;-73
2021/04/22 02:42:57;;;;;;;;;;;;;;;4.78;61.43;102453.34;4983752;28;19930;-73
2021/04/22 02:45:27;;;;;;;;;;;;;;;4.78;60.97;102457.72;4979399;28;19929;-72
2021/04/22 02:47:53;;;;;;;;;;;;;;;4.78;61.41;102458.56;4968331;28;19929;-72
2021/04/22 02:50:21;;;;;;;;;;;;;;;4.75;61.19;102456.09;4976730;28;19965;-73
2021/04/22 02:52:47;;;;;;;;;;;;;;;4.77;61.34;102456.03;4984461;28;20350;-73
2021/04/22 02:55:13;;;;;;;;;;;;;;;4.75;61.42;102451.75;4972933;28;19932;-73
2021/04/22 02:57:59;;;;;;;;;;;;;;;4.75;62.03;102454.34;4983911;28;19926;-73
2021/04/22 03:00:25;;;;;;;;;;;;;;;4.74;61.72;102457.00;4973956;28;19977;-72
2021/04/22 03:02:56;;;;;;;;;;;;;;;4.70;61.76;102445.06;4979678;28;19926;-72
2021/04/22 03:05:22;;;;;;;;;;;;;;;4.67;61.52;102451.25;4966346;28;19947;-73
2021/04/22 03:07:49;;;;;;;;;;;;;;;4.60;62.04;102448.97;4958455;28;20018;-72
2021/04/22 03:10:16;;;;;;;;;;;;;;;4.56;62.51;102448.25;4988651;28;19941;-73
2021/04/22 03:12:42;;;;;;;;;;;;;;;4.53;62.03;102446.66;4959685;28;19925;-73
2021/04/22 03:15:08;;;;;;;;;;;;;;;4.59;62.06;102452.47;4978854;28;19930;-72
2021/04/22 03:17:34;;;;;;;;;;;;;;;4.54;62.33;102460.47;4976625;28;19925;-73
2021/04/22 03:20:00;;;;;;;;;;;;;;;4.55;62.35;102457.81;4983190;28;19957;-72
2021/04/22 03:22:26;;;;;;;;;;;;;;;4.55;61.96;102462.19;4983186;28;19932;-73
2021/04/22 03:24:52;;;;;;;;;;;;;;;4.57;61.72;102457.75;4976134;28;19939;-73
2021/04/22 03:27:18;;;;;;;;;;;;;;;4.53;61.83;102462.25;4984421;28;20373;-73
2021/04/22 03:29:44;;;;;;;;;;;;;;;4.52;62.00;102463.16;4969696;28;19980;-73
2021/04/22 03:32:10;;;;;;;;;;;;;;;4.51;62.11;102468.44;4964701;28;19926;-73
2021/04/22 03:34:36;;;;;;;;;;;;;;;4.48;62.35;102464.19;4961441;28;20370;-73
2021/04/22 03:37:02;;;;;;;;;;;;;;;4.47;62.41;102472.91;4964797;28;19925;-72
2021/04/22 03:39:28;;;;;;;;;;;;;;;4.44;62.60;102459.22;4984207;28;19980;-72
2021/04/22 03:41:54;;;;;;;;;;;;;;;4.43;62.71;102460.97;4974009;28;20435;-73
2021/04/22 03:44:20;;;;;;;;;;;;;;;4.44;62.87;102473.03;4976775;28;19926;-72
2021/04/22 03:46:46;;;;;;;;;;;;;;;4.44;62.88;102472.19;4977880;28;19926;-72
2021/04/22 03:49:13;;;;;;;;;;;;;;;4.45;62.83;102473.88;4966809;28;19925;-73
2021/04/22 03:51:38;;;;;;;;;;;;;;;4.44;62.98;102475.63;4978121;28;19926;-72
2021/04/22 03:54:05;;;;;;;;;;;;;;;4.49;62.56;102483.25;4979089;28;19976;-71
2021/04/22 03:56:30;;;;;;;;;;;;;;;4.54;62.53;102487.31;4983117;28;19944;-71
2021/04/22 03:58:56;;;;;;;;;;;;;;;4.51;62.68;102474.47;4975562;28;20494;-71
2021/04/22 04:01:22;;;;;;;;;;;;;;;4.53;62.75;102482.22;4982314;28;19926;-72
2021/04/22 04:03:48;;;;;;;;;;;;;;;4.57;62.46;102475.97;4978000;28;19980;-72
2021/04/22 04:06:14;;;;;;;;;;;;;;;4.58;62.51;102475.03;4979819;28;19925;-72
2021/04/22 04:08:40;;;;;;;;;;;;;;;4.59;62.69;102475.88;4980262;28;19925;-71
2021/04/22 04:11:07;;;;;;;;;;;;;;;4.55;62.37;102470.81;4957574;28;19984;-71
2021/04/22 04:13:33;;;;;;;;;;;;;;;4.55;62.66;102476.03;4978928;28;19930;-72
2021/04/22 04:15:59;;;;;;;;;;;;;;;4.56;62.48;102476.84;4977077;28;20021;-72
2021/04/22 04:18:27;;;;;;;;;;;;;;;4.60;62.21;102485.38;4981550;28;20297;-72
2021/04/22 04:20:54;;;;;;;;;;;;;;;4.65;61.92;102481.66;4973722;28;19929;-72
2021/04/22 04:23:20;;;;;;;;;;;;;;;4.68;61.42;102480.69;4965146;28;19985;-72
2021/04/22 04:25:46;;;;;;;;;;;;;;;4.68;61.54;102481.50;4981078;28;19960;-72
2021/04/22 04:28:12;;;;;;;;;;;;;;;4.72;61.14;102482.22;4976020;28;19953;-72
2021/04/22 04:30:38;;;;;;;;;;;;;;;4.72;61.37;102484.81;4983403;28;20032;-72
2021/04/22 04:33:04;;;;;;;;;;;;;;;4.77;61.44;102480.28;4972201;28;19938;-72
2021/04/22 04:35:31;;;;;;;;;;;;;;;4.81;60.58;102481.81;4983710;28;19925;-72
2021/04/22 04:37:56;;;;;;;;;;;;;;;4.86;60.65;102485.06;4967579;28;19988;-72
2021/04/22 04:40:22;;;;;;;;;;;;;;;4.89;60.11;102484.91;4984590;28;19926;-72
2021/04/22 04:42:48;;;;;;;;;;;;;;;4.91;60.08;102490.06;4976690;28;19984;-72
2021/04/22 04:45:18;;;;;;;;;;;;;;;4.94;59.67;102490.78;4973840;28;19925;-72
2021/04/22 04:47:45;;;;;;;;;;;;;;;4.98;59.46;102493.22;4977005;28;20367;-71
2021/04/22 04:50:12;;;;;;;;;;;;;;;4.88;58.76;102475.44;4977999;28;19929;-71
2021/04/22 04:52:38;;;;;;;;;;;;;;;5.03;59.02;102493.88;4984526;28;20027;-72
2021/04/22 04:55:04;;;;;;;;;;;;;;;5.07;57.95;102498.84;4976260;28;20407;-72
2021/04/22 04:57:30;;;;;;;;;;;;;;;5.13;57.65;102493.38;4983328;28;19943;-72
2021/04/22 04:59:56;;;;;;;;;;;;;;;5.20;57.54;102493.13;4962554;28;20029;-72
2021/04/22 05:02:23;;;;;;;;;;;;;;;5.27;57.57;102497.97;4968049;28;19932;-72
2021/04/22 05:04:49;;;;;;;;;;;;;;;5.31;57.43;102496.91;4983522;28;19925;-73
2021/04/22 05:07:15;;;;;;;;;;;;;;;5.37;57.03;102497.50;4959509;28;20709;-73
2021/04/22 05:09:41;;;;;;;;;;;;;;;5.38;57.24;102497.44;4981693;28;19976;-73
2021/04/22 05:12:08;;;;;;;;;;;;;;;5.44;57.43;102502.38;4967802;28;19930;-73
2021/04/22 05:14:33;;;;;;;;;;;;;;;5.50;56.95;102501.25;4976186;28;20420;-73
2021/04/22 05:16:59;;;;;;;;;;;;;;;5.52;55.98;102502.00;4979818;28;20012;-73
2021/04/22 05:19:26;;;;;;;;;;;;;;;5.60;56.83;102507.69;4976376;28;19980;-73
2021/04/22 05:21:53;;;;;;;;;;;;;;;5.59;56.33;102510.38;4988702;28;19972;-72
2021/04/22 05:24:19;;;;;;;;;;;;;;;5.62;56.48;102507.63;4974469;28;20007;-72
2021/04/22 05:26:46;;;;;;;;;;;;;;;5.66;56.32;102511.75;4977364;28;20566;-72
2021/04/22 05:29:12;;;;;;;;;;;;;;;5.68;56.39;102512.53;4968695;28;19926;-72
2021/04/22 05:31:37;;;;;;;;;;;;;;;5.69;56.65;102515.06;4974481;28;19984;-73
2021/04/22 05:34:04;;;;;;;;;;;;;;;5.72;55.97;102517.53;4980721;28;20790;-73
2021/04/22 05:36:30;;;;;;;;;;;;;;;5.74;55.97;102522.66;4961159;28;19925;-72
2021/04/22 05:38:56;;;;;;;;;;;;;;;5.73;55.71;102527.03;4986294;28;19932;-72
2021/04/22 05:41:22;;;;;;;;;;;;;;;5.76;56.16;102528.63;4974771;28;19937;-72
2021/04/22 05:43:48;;;;;;;;;;;;;;;5.74;56.27;102527.84;4980496;28;19926;-72
2021/04/22 05:46:14;;;;;;;;;;;;;;;5.77;56.16;102532.09;4979408;28;19930;-72
2021/04/22 05:48:40;;;;;;;;;;;;;;;5.79;56.14;102538.06;4968114;28;19980;-73
2021/04/22 05:51:07;;;;;;;;;;;;;;;5.77;55.83;102542.50;4983977;28;19940;-72
2021/04/22 05:53:33;;;;;;;;;;;;;;;5.80;55.96;102540.63;4971594;28;20709;-72
2021/04/22 05:55:59;;;;;;;;;;;;;;;5.80;55.49;102548.44;4972964;28;20704;-73
2021/04/22 05:58:26;;;;;;;;;;;;;;;5.84;55.78;102549.97;4970985;28;19926;-72
2021/04/22 06:00:52;;;;;;;;;;;;;;;5.86;55.66;102555.94;4978847;28;20617;-72
2021/04/22 06:03:19;;;;;;;;;;;;;;;5.83;56.29;102550.88;4972492;28;19926;-73
2021/04/22 06:05:45;;;;;;;;;;;;;;;5.87;55.99;102557.63;4976684;28;20382;-72
2021/04/22 06:08:11;;;;;;;;;;;;;;;5.89;56.22;102553.19;4974461;28;19933;-73
2021/04/22 06:10:38;;;;;;;;;;;;;;;5.87;55.84;102560.22;4973433;28;19941;-72
2021/04/22 06:13:06;;;;;;;;;;;;;;;5.93;55.68;102566.91;4965799;28;20341;-72
2021/04/22 06:15:32;;;;;;;;;;;;;;;5.99;56.11;102565.81;4965466;28;20593;-73
2021/04/22 06:17:58;;;;;;;;;;;;;;;6.05;56.33;102568.94;4965969;28;19926;-73
2021/04/22 06:20:25;;;;;;;;;;;;;;;6.06;55.20;102565.44;4979638;28;19956;-73
2021/04/22 06:22:51;;;;;;;;;;;;;;;6.08;55.26;102567.97;4980144;28;19932;-73
2021/04/22 06:25:19;;;;;;;;;;;;;;;6.14;55.02;102570.28;4979871;28;19926;-73
2021/04/22 06:27:45;;;;;;;;;;;;;;;6.17;54.52;102562.28;4970810;28;19925;-72
2021/04/22 06:30:12;;;;;;;;;;;;;;;6.19;55.45;102570.88;4967436;28;20708;-72
2021/04/22 06:32:38;;;;;;;;;;;;;;;6.26;55.21;102577.47;4978618;28;19961;-73
2021/04/22 06:35:05;;;;;;;;;;;;;;;6.29;54.45;102579.09;4982156;28;19929;-72
2021/04/22 06:37:31;;;;;;;;;;;;;;;6.38;55.13;102580.41;4956777;28;20360;-72
2021/04/22 06:39:57;;;;;;;;;;;;;;;6.41;55.00;102588.94;4964762;28;19965;-70
2021/04/22 06:42:23;;;;;;;;;;;;;;;6.46;54.77;102586.91;4961355;28;19936;-70
2021/04/22 06:44:49;;;;;;;;;;;;;;;6.57;53.99;102593.38;4978863;28;19957;-70
2021/04/22 06:47:15;;;;;;;;;;;;;;;6.63;54.08;102588.69;4981892;28;19925;-70
2021/04/22 06:49:41;;;;;;;;;;;;;;;6.71;53.78;102591.75;4978342;28;19930;-70
2021/04/22 06:52:07;;;;;;;;;;;;;;;6.83;54.44;102595.50;4979124;28;19930;-70
2021/04/22 06:54:34;;;;;;;;;;;;;;;6.94;54.22;102594.97;4976171;28;19960;-70
2021/04/22 06:57:00;;;;;;;;;;;;;;;7.00;53.62;102602.47;4983380;28;20373;-70
2021/04/22 06:59:26;;;;;;;;;;;;;;;7.04;53.15;102601.38;4985722;28;20289;-70
2021/04/22 07:01:52;;;;;;;;;;;;;;;7.12;52.66;102604.44;4979131;28;19929;-70
2021/04/22 07:04:19;;;;;;;;;;;;;;;7.19;52.26;102604.09;4983918;28;20005;-70
2021/04/22 07:06:45;;;;;;;;;;;;;;;7.28;53.00;102609.69;4978026;28;19930;-72
2021/04/22 07:09:13;;;;;;;;;;;;;;;7.39;52.91;102616.09;4968560;28;20053;-71
2021/04/22 07:11:39;;;;;;;;;;;;;;;7.42;51.63;102610.72;4976516;28;19925;-70
2021/04/22 07:14:05;;;;;;;;;;;;;;;7.44;52.03;102609.72;4984630;28;20455;-70
2021/04/22 07:16:32;;;;;;;;;;;;;;;7.51;51.79;102608.47;4967937;28;19992;-70
2021/04/22 07:18:58;;;;;;;;;;;;;;;7.57;51.48;102617.75;4976360;28;19982;-71
2021/04/22 07:21:24;;;;;;;;;;;;;;;7.62;51.10;102613.09;4979745;28;19941;-71
2021/04/22 07:23:50;;;;;;;;;;;;;;;7.66;51.77;102619.88;4960111;28;19972;-71
2021/04/22 07:26:16;;;;;;;;;;;;;;;7.73;51.41;102620.34;4978366;28;19930;-71
2021/04/22 07:28:42;;;;;;;;;;;;;;;7.71;51.49;102615.22;4979553;28;19945;-71
2021/04/22 07:31:16;;;;;;;;;;;;;;;7.72;51.13;102619.53;4978146;28;20621;-71
2021/04/22 07:33:45;;;;;;;;;;;;;;;7.73;51.08;102618.59;4978642;28;19925;-72
2021/04/22 07:36:11;;;;;;;;;;;;;;;7.75;51.31;102613.28;4961400;28;20365;-73
2021/04/22 07:38:37;;;;;;;;;;;;;;;7.80;51.55;102618.25;4963422;28;19992;-72
2021/04/22 07:41:03;;;;;;;;;;;;;;;7.85;51.27;102617.06;4970982;28;19985;-71
2021/04/22 07:43:29;;;;;;;;;;;;;;;7.85;50.93;102618.84;4982001;28;19972;-73
2021/04/22 07:45:55;;;;;;;;;;;;;;;7.82;50.41;102624.22;4976337;28;20606;-71
2021/04/22 07:48:21;;;;;;;;;;;;;;;7.84;50.04;102622.38;4977660;28;19926;-71
2021/04/22 07:50:47;;;;;;;;;;;;;;;7.87;50.52;102619.59;4961949;28;19925;-71
2021/04/22 07:53:13;;;;;;;;;;;;;;;7.82;50.80;102616.38;4975440;28;19925;-72
2021/04/22 07:55:43;;;;;;;;;;;;;;;7.83;50.58;102623.31;4980778;28;19925;-72
2021/04/22 07:58:10;;;;;;;;;;;;;;;7.82;51.05;102621.63;4975262;28;19930;-71
2021/04/22 08:00:36;;;;;;;;;;;;;;;7.75;50.53;102628.13;4976340;28;19976;-71
2021/04/22 08:03:03;;;;;;;;;;;;;;;7.82;50.66;102632.94;4975565;28;19930;-71
2021/04/22 08:05:35;;;;;;;;;;;;;;;7.89;50.16;102628.19;4982152;28;19968;-71
2021/04/22 08:08:08;;;;;;;;;;;;;;;8.12;50.03;102625.16;4984087;28;19987;-71
2021/04/22 08:10:36;;;;;;;;;;;;;;;8.35;49.47;102625.63;4970290;28;20293;-71
2021/04/22 08:13:03;;;;;;;;;;;;;;;8.54;47.77;102621.97;4978796;28;20322;-71
2021/04/22 08:15:31;;;;;;;;;;;;;;;8.86;48.01;102623.56;4972519;28;19925;-71
2021/04/22 08:17:57;;;;;;;;;;;;;;;9.06;48.01;102624.97;4981884;28;19930;-72
2021/04/22 08:20:26;;;;;;;;;;;;;;;9.19;48.37;102626.84;4977857;28;19951;-72
2021/04/22 08:22:54;;;;;;;;;;;;;;;9.18;47.47;102627.78;4978578;28;19929;-72
2021/04/22 08:25:23;;;;;;;;;;;;;;;9.32;48.28;102632.19;4983335;28;20571;-71
2021/04/22 08:27:51;;;;;;;;;;;;;;;9.29;48.11;102633.19;4971130;28;19930;-72
2021/04/22 08:30:29;;;;;;;;;;;;;;;9.37;48.10;102637.97;4978722;28;20027;-72
2021/04/22 08:32:56;;;;;;;;;;;;;;;9.42;47.70;102646.41;4973018;28;20675;-72
2021/04/22 08:35:23;;;;;;;;;;;;;;;9.36;46.13;102639.75;4980537;28;19926;-72
2021/04/22 08:37:49;;;;;;;;;;;;;;;9.49;46.97;102643.31;4959062;28;19933;-72
2021/04/22 08:40:15;;;;;;;;;;;;;;;9.57;47.22;102640.22;4982120;28;19980;-72
2021/04/22 08:42:42;;;;;;;;;;;;;;;9.61;46.68;102628.59;4952010;28;19926;-72
2021/04/22 08:45:12;;;;;;;;;;;;;;;9.69;46.83;102633.38;4973027;28;19930;-72
2021/04/22 08:47:39;;;;;;;;;;;;;;;9.78;46.46;102630.19;4965331;28;19926;-71
2021/04/22 08:50:08;;;;;;;;;;;;;;;9.87;45.59;102633.97;4976729;28;19980;-71
2021/04/22 08:52:45;;;;;;;;;;;;;;;9.85;45.86;102633.25;4981076;28;19936;-71
2021/04/22 08:55:12;;;;;;;;;;;;;;;9.81;45.10;102637.00;4974568;28;19984;-72
2021/04/22 08:57:38;;;;;;;;;;;;;;;9.74;44.56;102630.44;4978779;28;19925;-71
2021/04/22 09:00:08;;;;;;;;;;;;;;;9.75;44.79;102632.97;4981113;28;19925;-71
2021/04/22 09:02:34;;;;;;;;;;;;;;;9.96;43.67;102629.91;4982636;28;19930;-71
2021/04/22 09:05:01;;;;;;;;;;;;;;;10.24;43.79;102626.38;4986355;28;19956;-72
2021/04/22 09:07:27;;;;;;;;;;;;;;;10.55;43.86;102630.47;4979803;28;20328;-73
2021/04/22 09:09:53;;;;;;;;;;;;;;;10.89;43.36;102636.09;4981391;28;19973;-71
2021/04/22 09:12:20;;;;;;;;;;;;;;;11.31;42.69;102635.84;4975048;28;19996;-71
2021/04/22 09:14:57;;;;;;;;;;;;;;;11.66;41.89;102633.38;4973313;28;19925;-71
2021/04/22 09:17:25;;;;;;;;;;;;;;;12.01;40.78;102633.50;4978938;28;20767;-71
2021/04/22 09:19:52;;;;;;;;;;;;;;;12.21;39.97;102642.59;4973592;28;19941;-71
2021/04/22 09:22:18;;;;;;;;;;;;;;;12.23;39.55;102643.31;4983252;28;19933;-72
2021/04/22 09:26:06;;;;;;;;;;;;;;;12.40;39.13;102638.59;5069481;27;19989;-71
2021/04/22 09:28:37;;;;;;;;;;;;;;;12.50;39.55;102641.38;5053224;28;19937;-72
2021/04/22 09:31:05;;;;;;;;;;;;;;;12.82;39.69;102650.34;5049929;28;19935;-71
2021/04/22 09:33:32;;;;;;;;;;;;;;;13.00;38.95;102644.63;5048153;28;20690;-71
2021/04/22 09:36:07;;;;;;;;;;;;;;;13.30;39.04;102649.34;5050168;28;19939;-71
2021/04/22 09:38:33;;;;;;;;;;;;;;;13.63;38.08;102643.19;5051645;28;19972;-71
2021/04/22 09:41:15;;;;;;;;;;;;;;;13.81;37.98;102643.53;5044338;28;20019;-71
2021/04/22 09:43:41;;;;;;;;;;;;;;;13.52;37.36;102648.47;5056424;28;19928;-71
2021/04/22 09:46:23;;;;;;;;;;;;;;;13.60;37.48;102642.59;5050473;28;19934;-72
2021/04/22 09:48:49;;;;;;;;;;;;;;;13.94;38.47;102646.03;5046628;28;19982;-71
2021/04/22 09:51:30;;;;;;;;;;;;;;;14.14;37.38;102640.94;5049375;28;19991;-71
2021/04/22 09:54:08;;;;;;;;;;;;;;;14.07;36.24;102643.22;5048653;28;20392;-71
2021/04/22 09:56:42;;;;;;;;;;;;;;;13.62;36.71;102645.94;5056345;28;19929;-72
2021/04/22 09:59:08;;;;;;;;;;;;;;;13.87;36.66;102639.56;5052139;28;20350;-71
2021/04/22 10:01:34;;;;;;;;;;;;;;;13.92;36.26;102640.03;5052889;28;20006;-71
2021/04/22 10:04:01;;;;;;;;;;;;;;;14.27;37.04;102636.31;5051663;28;19933;-71
2021/04/22 10:06:37;;;;;;;;;;;;;;;14.58;37.16;102644.34;5047615;28;19933;-71
2021/04/22 10:09:04;;;;;;;;;;;;;;;14.60;35.16;102640.66;5044199;28;19929;-71
2021/04/22 10:11:40;;;;;;;;;;;;;;;14.89;34.77;102637.31;5052950;28;19929;-71
2021/04/22 10:14:05;;;;;;;;;;;;;;;15.12;34.62;102645.94;5045016;28;19929;-71
2021/04/22 10:16:32;;;;;;;;;;;;;;;15.25;35.01;102637.81;5047735;28;19998;-71
2021/04/22 10:18:58;;;;;;;;;;;;;;;15.44;34.54;102642.31;5042306;28;19936;-71
2021/04/22 10:21:26;;;;;;;;;;;;;;;15.64;33.79;102643.19;5042402;28;19935;-71
2021/04/22 10:24:01;;;;;;;;;;;;;;;15.54;33.94;102640.56;5051065;28;19932;-70
2021/04/22 10:26:27;;;;;;;;;;;;;;;15.23;34.47;102637.09;5066895;28;19928;-70
2021/04/22 10:28:53;;;;;;;;;;;;;;;15.32;34.14;102638.09;5063348;28;19935;-71
2021/04/22 10:31:21;;;;;;;;;;;;;;;15.15;35.14;102626.31;5066300;28;19933;-71
2021/04/22 10:33:47;;;;;;;;;;;;;;;14.77;35.01;102633.91;5061844;28;19933;-71
2021/04/22 10:36:18;;;;;;;;;;;;;;;14.92;34.16;102638.88;5059284;28;20446;-70
2021/04/22 10:38:44;;;;;;;;;;;;;;;15.28;33.71;102632.22;5053864;28;19928;-70
2021/04/22 10:41:11;;;;;;;;;;;;;;;15.41;32.56;102630.19;5060792;28;19928;-71
2021/04/22 10:43:37;;;;;;;;;;;;;;;15.54;33.34;102629.09;5044786;28;19972;-71
2021/04/22 10:46:04;;;;;;;;;;;;;;;15.73;32.59;102625.72;5062311;28;19933;-71
2021/04/22 10:48:29;;;;;;;;;;;;;;;15.66;31.94;102628.06;5050929;28;20562;-72
2021/04/22 10:50:57;;;;;;;;;;;;;;;16.06;32.33;102623.69;5060078;28;19939;-70
2021/04/22 10:53:23;;;;;;;;;;;;;;;16.28;32.14;102614.63;5059723;28;19932;-71
2021/04/22 10:55:51;;;;;;;;;;;;;;;16.44;32.23;102611.38;5049927;28;20307;-71
2021/04/22 10:58:24;;;;;;;;;;;;;;;16.53;33.12;102619.31;5052156;28;20346;-71
2021/04/22 11:00:50;;;;;;;;;;;;;;;16.19;32.33;102613.63;5051780;28;19929;-70
2021/04/22 11:03:23;;;;;;;;;;;;;;;16.51;32.01;102615.16;5052734;28;19943;-71
2021/04/22 11:05:57;;;;;;;;;;;;;;;16.74;30.82;102603.25;5056008;28;19929;-71
2021/04/22 11:08:35;;;;;;;;;;;;;;;16.87;31.79;102613.53;5053502;28;19936;-71
2021/04/22 11:11:02;;;;;;;;;;;;;;;17.12;31.49;102611.25;5060072;28;20476;-71
2021/04/22 11:13:32;;;;;;;;;;;;;;;17.36;29.98;102611.53;5043531;28;19928;-71
2021/04/22 11:15:58;;;;;;;;;;;;;;;17.58;30.07;102609.44;5058151;28;19928;-71
2021/04/22 11:18:34;;;;;;;;;;;;;;;17.47;29.52;102609.69;5044553;28;19949;-71
2021/04/22 11:21:00;;;;;;;;;;;;;;;17.73;30.34;102607.97;5063681;28;19929;-71
2021/04/22 11:23:27;;;;;;;;;;;;;;;18.06;29.79;102613.63;5048003;28;19928;-71
2021/04/22 11:25:54;;;;;;;;;;;;;;;18.20;29.18;102608.75;5064245;28;20421;-71
2021/04/22 11:28:34;;;;;;;;;;;;;;;17.73;28.63;102609.78;5044121;28;19955;-71
2021/04/22 11:31:11;;;;;;;;;;;;;;;17.78;29.45;102610.19;5058158;28;20433;-71
2021/04/22 11:33:37;;;;;;;;;;;;;;;17.37;28.34;102607.09;5058771;28;19983;-72
2021/04/22 11:36:30;;;;;;;;;;;;;;;17.57;30.42;102610.44;5047911;28;20313;-72
2021/04/22 11:39:01;;;;;;;;;;;;;;;17.68;30.19;102609.38;5054469;28;19933;-71
2021/04/22 11:41:28;;;;;;;;;;;;;;;18.00;30.37;102618.72;5058455;28;19928;-73
2021/04/22 11:44:11;;;;;;;;;;;;;;;18.02;29.62;102609.59;5059738;28;19932;-71
2021/04/22 11:46:44;;;;;;;;;;;;;;;17.76;29.68;102604.19;5063824;28;19928;-72
2021/04/22 11:49:23;;;;;;;;;;;;;;;17.96;29.31;102608.38;5069586;28;20339;-72
2021/04/22 11:51:49;;;;;;;;;;;;;;;17.92;29.26;102604.38;5055267;28;19928;-71
2021/04/22 11:54:16;;;;;;;;;;;;;;;18.12;30.19;102599.72;5066119;28;20057;-71
2021/04/22 11:56:45;;;;;;;;;;;;;;;18.21;30.05;102603.31;5053463;28;19929;-71
2021/04/22 11:59:16;;;;;;;;;;;;;;;18.01;29.67;102599.97;5062338;28;19925;-73
2021/04/22 12:01:49;;;;;;;;;;;;;;;18.15;29.57;102598.59;5067441;28;19929;-71
2021/04/22 12:04:15;;;;;;;;;;;;;;;17.93;29.54;102583.97;5061181;28;19964;-71
2021/04/22 12:06:41;;;;;;;;;;;;;;;17.85;28.91;102595.34;5063307;28;19936;-71
2021/04/22 12:09:07;;;;;;;;;;;;;;;17.83;29.97;102591.13;5051244;28;20369;-71
2021/04/22 12:11:37;;;;;;;;;;;;;;;18.02;29.95;102599.00;5057162;28;19990;-72
2021/04/22 12:14:04;;;;;;;;;;;;;;;18.32;29.60;102600.38;5045824;28;20005;-71
2021/04/22 12:16:35;;;;;;;;;;;;;;;18.32;29.43;102597.72;5064183;28;19929;-71
2021/04/22 12:19:01;;;;;;;;;;;;;;;18.06;29.02;102600.34;5058574;28;19986;-71
2021/04/22 12:21:27;;;;;;;;;;;;;;;18.36;30.20;102595.59;5051352;28;19987;-72
2021/04/22 12:23:54;;;;;;;;;;;;;;;18.60;29.80;102594.09;5051545;28;20551;-72
2021/04/22 12:26:26;;;;;;;;;;;;;;;18.45;29.68;102604.47;5037109;28;20380;-71
2021/04/22 12:28:54;;;;;;;;;;;;;;;18.77;28.96;102599.34;5052503;28;20665;-71
2021/04/22 12:31:27;;;;;;;;;;;;;;;18.24;28.44;102604.81;5057945;28;20479;-71
2021/04/22 12:33:54;;;;;;;;;;;;;;;18.64;28.84;102590.13;5052607;28;19956;-71
2021/04/22 12:36:20;;;;;;;;;;;;;;;19.00;28.75;102596.19;5053816;28;19929;-71
2021/04/22 12:38:46;;;;;;;;;;;;;;;19.34;28.75;102590.00;5046458;28;20464;-71
2021/04/22 12:41:12;;;;;;;;;;;;;;;19.36;28.41;102599.47;5046641;28;19940;-71
2021/04/22 12:43:39;;;;;;;;;;;;;;;19.10;28.21;102593.41;5051178;28;19940;-71
2021/04/22 12:46:08;;;;;;;;;;;;;;;19.39;29.65;102605.50;5055945;28;20459;-71